Time;durP1;ratioP1;P1;durP2;ratioP2;P2;SDS_P1;SDS_P2;PMS_P1;PMS_P2;Temp;Humidity;BMP_temperature;BMP_pressure;BME280_temperature;BME280_humidity;BME280_pressure;Samples;Min_cycle;Max_cycle;Signal;HPM_P1;HPM_P2
2023/06/24 00:01:32;;;;;;;7.88;4.70;;;;;;;16.11;80.72;97450.44;5002434;28;20123;-66
2023/06/24 00:03:57;;;;;;;9.88;5.00;;;;;;;16.10;80.64;97446.09;4985080;28;20044;-66
2023/06/24 00:06:25;;;;;;;7.80;5.10;;;;;;;16.03;81.38;97457.09;4997519;28;20571;-66
2023/06/24 00:08:52;;;;;;;9.40;4.85;;;;;;;16.06;81.51;97450.78;5001781;28;20086;-66
2023/06/24 00:11:18;;;;;;;9.15;5.18;;;;;;;15.98;81.73;97454.69;4996560;28;20514;-69
2023/06/24 00:13:44;;;;;;;7.65;4.95;;;;;;;16.00;81.71;97460.63;5001556;28;20037;-67
2023/06/24 00:16:10;;;;;;;8.43;4.60;;;;;;;16.00;81.53;97457.84;4985336;28;20046;-66
2023/06/24 00:18:37;;;;;;;7.68;4.30;;;;;;;15.99;81.92;97450.72;4986562;28;20112;-66
2023/06/24 00:21:04;;;;;;;8.50;4.80;;;;;;;15.95;81.59;97452.69;4999338;28;20049;-66
2023/06/24 00:23:34;;;;;;;8.38;4.45;;;;;;;15.96;81.30;97454.28;4984025;28;20072;-66
2023/06/24 00:26:00;;;;;;;7.45;4.35;;;;;;;15.99;81.10;97451.53;4983328;28;20031;-66
2023/06/24 00:28:26;;;;;;;7.57;4.60;;;;;;;16.01;80.78;97448.41;4980270;28;20038;-66
2023/06/24 00:30:52;;;;;;;6.72;4.22;;;;;;;15.99;81.10;97442.44;4966977;28;20046;-67
2023/06/24 00:33:19;;;;;;;7.25;4.75;;;;;;;15.98;80.73;97452.72;4977643;28;20041;-67
2023/06/24 00:35:44;;;;;;;8.15;4.65;;;;;;;15.98;80.84;97435.34;4964853;28;20042;-67
2023/06/24 00:38:10;;;;;;;8.70;4.38;;;;;;;15.96;81.19;97451.53;4977150;28;20038;-67
2023/06/24 00:40:35;;;;;;;7.20;4.50;;;;;;;16.01;80.30;97440.91;4982033;28;20100;-67
2023/06/24 00:43:02;;;;;;;6.53;4.40;;;;;;;16.04;80.38;97439.31;4980398;28;20089;-67
2023/06/24 00:45:29;;;;;;;8.85;4.47;;;;;;;16.06;79.82;97436.97;4980196;28;20084;-66
2023/06/24 00:47:55;;;;;;;6.35;4.13;;;;;;;16.09;79.58;97441.72;4983236;28;20496;-66
2023/06/24 00:50:21;;;;;;;7.93;4.30;;;;;;;16.07;79.55;97438.56;4977364;28;20054;-66
2023/06/24 00:52:48;;;;;;;10.75;4.88;;;;;;;16.04;79.60;97429.09;4966106;28;20046;-66
2023/06/24 00:55:15;;;;;;;7.90;4.85;;;;;;;15.99;80.31;97434.16;4989200;28;20054;-66
2023/06/24 00:57:45;;;;;;;10.07;4.15;;;;;;;16.00;79.71;97433.78;5000383;28;20066;-68
2023/06/24 01:00:17;;;;;;;8.77;4.45;;;;;;;15.98;79.96;97440.88;5001533;28;20034;-68
2023/06/24 01:02:43;;;;;;;7.40;4.32;;;;;;;15.95;80.38;97433.34;5005195;28;20064;-67
2023/06/24 01:05:11;;;;;;;6.93;4.57;;;;;;;15.89;80.66;97435.69;5000418;28;20086;-67
2023/06/24 01:07:38;;;;;;;6.53;4.15;;;;;;;15.94;79.36;97437.31;5005634;28;20100;-68
2023/06/24 01:10:08;;;;;;;6.93;4.20;;;;;;;15.94;79.20;97438.09;5003355;28;20045;-66
2023/06/24 01:12:34;;;;;;;6.68;4.40;;;;;;;15.99;78.66;97437.72;5005790;28;20065;-67
2023/06/24 01:15:01;;;;;;;6.78;4.20;;;;;;;16.00;78.59;97436.53;5005933;28;20042;-68
2023/06/24 01:17:43;;;;;;;7.65;4.18;;;;;;;16.01;78.18;97427.09;5000480;28;20441;-67
2023/06/24 01:20:29;;;;;;;7.80;4.28;;;;;;;16.02;78.08;97430.63;5001023;28;20042;-67
2023/06/24 01:23:09;;;;;;;7.03;4.45;;;;;;;16.02;78.01;97423.13;4991828;28;20049;-69
2023/06/24 01:25:59;;;;;;;6.95;4.03;;;;;;;15.97;78.13;97431.00;4985016;28;20384;-68
2023/06/24 01:28:40;;;;;;;7.75;4.18;;;;;;;15.96;78.45;97421.91;4980506;28;20133;-67
2023/06/24 01:31:24;;;;;;;9.60;6.05;;;;;;;15.94;78.23;97421.50;4982456;28;20053;-67
2023/06/24 01:34:17;;;;;;;8.80;4.03;;;;;;;15.95;78.45;97427.81;4984787;28;20061;-67
2023/06/24 01:37:00;;;;;;;7.78;4.68;;;;;;;15.95;78.24;97431.38;4935205;28;20101;-67
2023/06/24 01:39:29;;;;;;;6.75;4.40;;;;;;;15.91;78.70;97430.56;4980610;28;20106;-68
2023/06/24 01:42:00;;;;;;;8.18;4.75;;;;;;;15.96;79.07;97429.41;4986177;28;20096;-67
2023/06/24 01:44:28;;;;;;;11.32;4.90;;;;;;;15.93;79.11;97435.69;4979722;28;20046;-68
2023/06/24 01:46:57;;;;;;;10.35;4.47;;;;;;;15.88;81.62;97430.53;4984724;28;20042;-68
2023/06/24 01:49:25;;;;;;;6.47;4.50;;;;;;;15.71;82.70;97426.44;4979927;28;20535;-66
2023/06/24 01:51:51;;;;;;;7.65;4.28;;;;;;;15.60;83.89;97431.88;4986036;28;20046;-67
2023/06/24 01:54:19;;;;;;;7.28;4.80;;;;;;;15.54;84.61;97427.88;4981300;28;20038;-68
2023/06/24 01:56:47;;;;;;;9.07;4.32;;;;;;;15.47;85.07;97436.91;4992442;28;20046;-69
2023/06/24 01:59:16;;;;;;;6.40;3.88;;;;;;;15.35;86.36;97429.69;4979641;28;20030;-67
2023/06/24 02:01:43;;;;;;;6.80;4.10;;;;;;;15.39;85.71;97432.47;4984233;28;20051;-67
2023/06/24 02:04:10;;;;;;;7.20;4.28;;;;;;;15.38;84.87;97431.69;4967866;28;20377;-67
2023/06/24 02:06:37;;;;;;;8.80;4.45;;;;;;;15.46;84.20;97429.78;4965831;28;20141;-68
2023/06/24 02:09:05;;;;;;;8.32;4.85;;;;;;;15.58;83.37;97437.00;4963646;28;20484;-67
2023/06/24 02:11:33;;;;;;;11.18;5.18;;;;;;;15.62;83.48;97430.31;4965298;28;20054;-67
2023/06/24 02:14:00;;;;;;;6.20;4.18;;;;;;;15.68;83.34;97437.09;4947487;28;20054;-68
2023/06/24 02:16:27;;;;;;;6.13;4.32;;;;;;;15.53;86.25;97418.81;4960642;28;20078;-67
2023/06/24 02:18:54;;;;;;;6.38;4.78;;;;;;;15.34;87.74;97419.84;4948138;28;20039;-67
2023/06/24 02:21:21;;;;;;;7.22;4.63;;;;;;;15.22;88.32;97420.91;4944167;28;20400;-68
2023/06/24 02:23:48;;;;;;;8.60;4.65;;;;;;;15.29;88.69;97420.19;4981735;28;20496;-66
2023/06/24 02:26:15;;;;;;;10.43;4.70;;;;;;;15.43;86.74;97419.50;4978995;28;20049;-66
2023/06/24 02:28:41;;;;;;;8.73;4.80;;;;;;;15.45;86.61;97409.69;4982259;28;20047;-66
2023/06/24 02:31:09;;;;;;;8.05;4.47;;;;;;;15.38;87.10;97415.13;4979774;28;20043;-67
2023/06/24 02:33:34;;;;;;;9.30;4.68;;;;;;;15.40;88.09;97415.53;4984312;28;20042;-68
2023/06/24 02:36:00;;;;;;;7.97;4.53;;;;;;;15.26;86.28;97427.25;4983035;28;20081;-67
2023/06/24 02:38:25;;;;;;;6.85;4.55;;;;;;;15.48;89.50;97425.50;4975115;28;20034;-68
2023/06/24 02:40:51;;;;;;;7.65;4.72;;;;;;;15.49;90.35;97429.03;4983771;28;20038;-67
2023/06/24 02:43:17;;;;;;;8.30;4.60;;;;;;;15.39;90.84;97426.97;4980290;28;20356;-67
2023/06/24 02:45:44;;;;;;;7.78;4.50;;;;;;;15.28;91.62;97424.88;4984458;28;20039;-67
2023/06/24 02:48:10;;;;;;;7.38;4.82;;;;;;;15.00;93.96;97422.66;4979651;28;20042;-67
2023/06/24 02:50:38;;;;;;;9.00;4.47;;;;;;;15.00;96.42;97432.88;4984017;28;20204;-68
2023/06/24 02:53:05;;;;;;;7.10;4.35;;;;;;;15.01;96.71;97426.22;4962532;28;20042;-66
2023/06/24 02:55:32;;;;;;;7.78;5.07;;;;;;;15.01;96.34;97432.50;4982224;28;20042;-67
2023/06/24 02:57:58;;;;;;;10.82;5.55;;;;;;;14.90;95.93;97432.38;4995721;28;20044;-68
2023/06/24 03:00:23;;;;;;;8.13;5.18;;;;;;;14.82;97.65;97433.50;4998609;28;20617;-68
2023/06/24 03:02:50;;;;;;;7.63;5.25;;;;;;;14.85;98.25;97438.25;5002633;28;20053;-67
2023/06/24 03:05:16;;;;;;;9.10;5.22;;;;;;;14.88;99.06;97443.00;4997790;28;20038;-67
2023/06/24 03:07:42;;;;;;;9.65;4.78;;;;;;;14.86;99.65;97437.09;5001836;28;20129;-67
2023/06/24 03:10:10;;;;;;;9.18;5.47;;;;;;;14.83;100.00;97439.81;4998961;28;20044;-67
2023/06/24 03:12:35;;;;;;;6.97;4.60;;;;;;;14.81;100.00;97445.69;4982649;28;20042;-67
2023/06/24 03:15:01;;;;;;;10.13;5.05;;;;;;;14.72;100.00;97448.72;5002666;28;20042;-67
2023/06/24 03:17:27;;;;;;;11.82;5.53;;;;;;;14.65;100.00;97448.66;4997816;28;20073;-66
2023/06/24 03:19:52;;;;;;;10.80;6.05;;;;;;;14.59;100.00;97447.41;5003673;28;20065;-67
2023/06/24 03:22:17;;;;;;;12.95;5.35;;;;;;;14.50;100.00;97449.63;4997603;28;20096;-66
2023/06/24 03:24:43;;;;;;;9.35;5.05;;;;;;;14.46;100.00;97451.53;5001925;28;20455;-66
2023/06/24 03:27:09;;;;;;;11.50;5.65;;;;;;;14.37;100.00;97445.50;4986555;28;20046;-67
2023/06/24 03:29:35;;;;;;;7.10;5.25;;;;;;;14.32;100.00;97458.44;4986004;28;20040;-67
2023/06/24 03:32:00;;;;;;;8.45;5.10;;;;;;;14.19;100.00;97456.28;5002606;28;20132;-68
2023/06/24 03:34:26;;;;;;;8.43;5.00;;;;;;;14.26;100.00;97453.63;4989235;28;20050;-68
2023/06/24 03:36:54;;;;;;;8.60;5.30;;;;;;;14.29;100.00;97463.91;4982500;28;20454;-68
2023/06/24 03:39:20;;;;;;;7.32;5.32;;;;;;;14.32;100.00;97463.94;4977739;28;20088;-69
2023/06/24 03:41:46;;;;;;;9.63;5.28;;;;;;;14.38;100.00;97456.16;4983143;28;20057;-68
2023/06/24 03:44:11;;;;;;;8.43;5.45;;;;;;;14.44;100.00;97467.63;4978189;28;20042;-68
2023/06/24 03:46:37;;;;;;;9.90;5.82;;;;;;;14.40;100.00;97473.09;4982384;28;20044;-67
2023/06/24 03:49:02;;;;;;;8.45;5.40;;;;;;;14.42;100.00;97473.53;4981301;28;20048;-66
2023/06/24 03:51:28;;;;;;;8.05;5.50;;;;;;;14.20;100.00;97463.38;4980583;28;20053;-68
2023/06/24 03:53:53;;;;;;;8.75;5.50;;;;;;;14.09;100.00;97471.50;4982212;28;20137;-67
2023/06/24 03:56:18;;;;;;;10.23;5.50;;;;;;;14.09;100.00;97466.75;4979239;28;20042;-67
2023/06/24 03:58:44;;;;;;;8.35;5.38;;;;;;;14.15;100.00;97479.06;4989215;28;20042;-68
2023/06/24 04:01:10;;;;;;;9.52;5.20;;;;;;;14.24;100.00;97470.53;4976915;28;20039;-68
2023/06/24 04:03:35;;;;;;;11.75;5.50;;;;;;;14.42;100.00;97475.50;4983496;28;20046;-67
2023/06/24 04:06:04;;;;;;;8.52;5.43;;;;;;;14.59;100.00;97474.97;4984395;28;20038;-67
2023/06/24 04:08:29;;;;;;;9.73;5.18;;;;;;;14.71;100.00;97479.44;4984405;28;20483;-67
2023/06/24 04:10:56;;;;;;;8.85;5.22;;;;;;;14.65;100.00;97480.94;4983441;28;20086;-68
2023/06/24 04:13:21;;;;;;;8.73;5.43;;;;;;;14.74;100.00;97483.41;4960202;28;20564;-67
2023/06/24 04:15:47;;;;;;;10.73;5.68;;;;;;;14.77;100.00;97491.75;4982221;28;20053;-68
2023/06/24 04:18:12;;;;;;;9.00;5.82;;;;;;;14.59;100.00;97502.53;4959776;28;20708;-66
2023/06/24 04:20:38;;;;;;;10.02;6.15;;;;;;;14.64;100.00;97498.63;4982418;28;20400;-67
2023/06/24 04:23:05;;;;;;;8.85;5.75;;;;;;;14.80;100.00;97495.69;4979595;28;20050;-66
2023/06/24 04:25:31;;;;;;;8.00;5.47;;;;;;;14.93;100.00;97493.47;4981907;28;20072;-68
2023/06/24 04:27:57;;;;;;;9.38;5.90;;;;;;;15.16;100.00;97502.44;4981278;28;20042;-68
2023/06/24 04:30:22;;;;;;;7.72;4.90;;;;;;;15.46;100.00;97498.81;4976876;28;20347;-70
2023/06/24 04:32:48;;;;;;;6.93;4.90;;;;;;;15.77;99.16;97502.25;4981734;28;20386;-70
2023/06/24 04:35:13;;;;;;;9.88;4.90;;;;;;;16.01;96.78;97500.91;4976379;28;20505;-70
2023/06/24 04:37:40;;;;;;;11.13;5.82;;;;;;;16.03;94.19;97507.63;4981767;28;20084;-70
2023/06/24 04:40:06;;;;;;;11.63;5.85;;;;;;;16.27;94.44;97507.41;4977231;28;20065;-70
2023/06/24 04:42:31;;;;;;;10.50;5.40;;;;;;;16.40;92.47;97505.88;4981408;28;20042;-70
2023/06/24 04:44:56;;;;;;;7.03;5.20;;;;;;;16.36;90.64;97513.38;4983090;28;20038;-69
2023/06/24 04:47:22;;;;;;;9.00;5.43;;;;;;;16.18;94.11;97510.50;4977810;28;20859;-70
2023/06/24 04:49:47;;;;;;;7.88;5.38;;;;;;;16.31;92.42;97508.19;4973233;28;20551;-70
2023/06/24 04:52:13;;;;;;;7.47;4.95;;;;;;;16.61;90.47;97513.53;4957725;28;20396;-70
2023/06/24 04:54:39;;;;;;;11.60;5.18;;;;;;;16.80;88.39;97513.22;4962993;28;20051;-71
2023/06/24 04:57:07;;;;;;;6.72;4.50;;;;;;;17.07;87.80;97512.16;4992594;28;20108;-71
2023/06/24 04:59:33;;;;;;;9.10;5.15;;;;;;;18.13;84.26;97510.78;4981229;28;20039;-70
2023/06/24 05:01:58;;;;;;;9.93;5.47;;;;;;;19.56;74.56;97513.50;4964166;28;20101;-69
2023/06/24 05:04:24;;;;;;;6.85;4.45;;;;;;;19.96;69.07;97520.38;4956943;28;20047;-69
2023/06/24 05:06:49;;;;;;;7.68;4.47;;;;;;;21.21;64.39;97528.69;4963032;28;20043;-69
2023/06/24 05:09:14;;;;;;;8.15;4.43;;;;;;;22.03;59.11;97514.81;4924499;28;20086;-70
2023/06/24 05:11:40;;;;;;;5.95;3.78;;;;;;;23.45;53.98;97516.13;4962613;28;20447;-69
2023/06/24 05:14:06;;;;;;;8.18;4.32;;;;;;;23.85;51.96;97518.84;4957188;28;20039;-69
2023/06/24 05:16:31;;;;;;;5.18;3.95;;;;;;;24.30;50.42;97530.59;4961859;28;20046;-69
2023/06/24 05:18:57;;;;;;;7.20;4.05;;;;;;;25.08;47.90;97538.91;4962053;28;20049;-68
2023/06/24 05:21:22;;;;;;;7.82;4.65;;;;;;;25.65;47.42;97544.13;4957461;28;20054;-69
2023/06/24 05:23:47;;;;;;;6.60;4.50;;;;;;;25.54;46.73;97548.03;4962173;28;20357;-69
2023/06/24 05:26:13;;;;;;;5.88;3.80;;;;;;;26.28;45.91;97543.34;4956937;28;20038;-69
2023/06/24 05:28:39;;;;;;;6.20;4.25;;;;;;;25.86;44.24;97542.69;4962089;28;20102;-69
2023/06/24 05:31:04;;;;;;;6.63;4.22;;;;;;;25.31;45.73;97537.88;4940113;28;20093;-69
2023/06/24 05:33:30;;;;;;;5.28;4.00;;;;;;;25.39;44.19;97535.69;4962898;28;20519;-69
2023/06/24 05:35:55;;;;;;;5.53;3.88;;;;;;;22.71;48.63;97533.97;4984186;28;20078;-70
2023/06/24 05:38:20;;;;;;;7.28;4.25;;;;;;;21.99;51.95;97533.63;4977617;28;20198;-70
2023/06/24 05:40:46;;;;;;;5.63;4.07;;;;;;;22.80;50.49;97527.06;4986165;28;20042;-70
2023/06/24 05:43:11;;;;;;;5.30;3.80;;;;;;;23.03;50.80;97531.75;4977207;28;20146;-68
2023/06/24 05:45:37;;;;;;;5.28;3.70;;;;;;;22.37;50.77;97539.00;4985240;28;20038;-69
2023/06/24 05:48:03;;;;;;;7.85;3.67;;;;;;;21.87;53.56;97541.34;4982306;28;20093;-68
2023/06/24 05:50:28;;;;;;;8.32;4.35;;;;;;;21.10;55.26;97539.94;4968009;28;20497;-68
2023/06/24 05:52:54;;;;;;;7.20;4.50;;;;;;;21.56;55.19;97532.25;4965309;28;20130;-68
2023/06/24 05:55:19;;;;;;;7.03;4.25;;;;;;;21.60;54.79;97526.63;4967402;28;20091;-69
2023/06/24 05:57:45;;;;;;;6.22;3.85;;;;;;;22.19;52.06;97537.25;4992833;28;20065;-69
2023/06/24 06:00:11;;;;;;;6.88;4.63;;;;;;;21.09;56.54;97529.25;4981006;28;20104;-68
2023/06/24 06:02:36;;;;;;;6.70;4.45;;;;;;;21.19;56.63;97531.91;4966906;28;20399;-69
2023/06/24 06:05:03;;;;;;;6.07;3.88;;;;;;;22.38;54.06;97527.38;4975904;28;20035;-68
2023/06/24 06:07:28;;;;;;;6.18;3.88;;;;;;;22.45;51.38;97534.84;4961950;28;20458;-69
2023/06/24 06:09:54;;;;;;;6.35;4.25;;;;;;;22.65;51.22;97524.53;4964909;28;20051;-70
2023/06/24 06:12:19;;;;;;;5.80;3.95;;;;;;;21.43;55.56;97534.78;4960311;28;20510;-67
2023/06/24 06:14:44;;;;;;;7.05;3.95;;;;;;;21.14;57.89;97537.13;4965787;28;20066;-69
2023/06/24 06:17:11;;;;;;;7.80;4.10;;;;;;;21.72;55.97;97535.19;4959868;28;20043;-70
2023/06/24 06:19:39;;;;;;;6.60;3.95;;;;;;;22.40;53.06;97530.56;4963181;28;20042;-71
2023/06/24 06:22:05;;;;;;;6.57;4.07;;;;;;;22.79;51.79;97526.25;4959787;28;20568;-69
2023/06/24 06:24:30;;;;;;;6.25;4.10;;;;;;;20.52;60.34;97534.19;4964556;28;20038;-69
2023/06/24 06:26:58;;;;;;;5.78;3.70;;;;;;;21.92;56.50;97532.50;4964706;28;20125;-70
2023/06/24 06:29:23;;;;;;;6.80;4.22;;;;;;;22.71;53.18;97541.56;4942400;28;20047;-70
2023/06/24 06:31:48;;;;;;;5.68;3.92;;;;;;;22.81;52.99;97537.00;4964036;28;20139;-71
2023/06/24 06:34:14;;;;;;;9.55;3.75;;;;;;;22.60;53.50;97533.38;4972867;28;20068;-71
2023/06/24 06:36:39;;;;;;;5.32;3.70;;;;;;;21.11;57.57;97530.41;4988172;28;20177;-71
2023/06/24 06:39:05;;;;;;;7.63;4.00;;;;;;;23.09;52.68;97532.88;4979564;28;20047;-68
2023/06/24 06:41:30;;;;;;;6.35;3.70;;;;;;;25.23;46.99;97536.50;4983604;28;20387;-69
2023/06/24 06:43:56;;;;;;;4.70;3.40;;;;;;;26.54;43.00;97536.88;4982905;28;20042;-70
2023/06/24 06:46:21;;;;;;;8.27;3.80;;;;;;;25.50;43.94;97538.94;4978564;28;20341;-69
2023/06/24 06:48:46;;;;;;;5.97;3.88;;;;;;;25.06;45.95;97543.41;4982935;28;20400;-69
2023/06/24 06:51:12;;;;;;;6.75;3.50;;;;;;;25.30;45.39;97541.94;4942653;28;20035;-70
2023/06/24 06:53:38;;;;;;;5.68;3.17;;;;;;;27.41;41.32;97539.00;4963877;28;20046;-71
2023/06/24 06:56:03;;;;;;;5.03;3.30;;;;;;;24.89;46.75;97539.88;4969595;28;20392;-71
2023/06/24 06:58:29;;;;;;;5.13;3.08;;;;;;;27.39;42.71;97529.47;4993423;28;20171;-70
2023/06/24 07:00:54;;;;;;;5.32;3.50;;;;;;;28.31;39.33;97538.31;5003859;28;20510;-70
2023/06/24 07:03:19;;;;;;;4.95;3.13;;;;;;;24.64;46.43;97535.72;5000020;28;20395;-70
2023/06/24 07:05:46;;;;;;;4.75;3.08;;;;;;;25.76;45.63;97530.53;5003506;28;20462;-71
2023/06/24 07:08:11;;;;;;;7.60;3.50;;;;;;;26.29;43.31;97528.06;4997893;28;20060;-70
2023/06/24 07:10:37;;;;;;;5.03;3.42;;;;;;;27.88;39.49;97536.44;4984092;28;20038;-70
2023/06/24 07:13:02;;;;;;;5.72;3.67;;;;;;;25.06;45.52;97535.78;4974591;28;20518;-71
2023/06/24 07:15:28;;;;;;;5.65;3.22;;;;;;;26.69;43.19;97523.94;4962315;28;20129;-71
2023/06/24 07:17:53;;;;;;;4.85;2.85;;;;;;;27.98;40.07;97519.16;4964756;28;20047;-71
2023/06/24 07:20:19;;;;;;;8.73;3.35;;;;;;;27.69;41.05;97532.75;4961239;28;20046;-69
2023/06/24 07:22:45;;;;;;;4.30;3.13;;;;;;;28.95;39.42;97529.16;4965788;28;20042;-67
2023/06/24 07:25:11;;;;;;;5.05;3.42;;;;;;;28.74;37.88;97518.84;4959169;28;20509;-68
2023/06/24 07:27:36;;;;;;;6.60;4.50;;;;;;;29.83;37.48;97521.94;4963600;28;20035;-68
2023/06/24 07:30:02;;;;;;;7.10;5.18;;;;;;;29.44;37.63;97529.41;4962802;28;20484;-67
2023/06/24 07:32:27;;;;;;;5.30;3.83;;;;;;;29.73;37.67;97534.53;4960996;28;20840;-67
2023/06/24 07:34:52;;;;;;;7.15;3.70;;;;;;;29.17;38.79;97514.91;4963824;28;20523;-67
2023/06/24 07:37:18;;;;;;;8.25;3.95;;;;;;;29.51;38.53;97515.78;4977413;28;20136;-67
2023/06/24 07:39:43;;;;;;;4.10;3.00;;;;;;;29.84;35.81;97520.72;5004897;28;20042;-67
2023/06/24 07:42:08;;;;;;;4.38;2.90;;;;;;;25.63;42.89;97516.50;4978180;28;20116;-67
2023/06/24 07:44:36;;;;;;;4.60;3.30;;;;;;;25.11;44.82;97518.41;4981794;28;20042;-68
2023/06/24 07:47:02;;;;;;;5.13;3.35;;;;;;;24.13;46.12;97507.41;4982410;28;20415;-67
2023/06/24 07:49:27;;;;;;;6.68;3.35;;;;;;;23.12;47.88;97511.66;4978839;28;20470;-67
2023/06/24 07:51:53;;;;;;;5.38;3.67;;;;;;;23.30;48.72;97520.47;4982562;28;20129;-67
2023/06/24 07:54:18;;;;;;;6.90;3.80;;;;;;;23.84;48.45;97522.88;4977246;28;20049;-67
2023/06/24 07:56:43;;;;;;;6.13;3.10;;;;;;;26.15;43.77;97516.53;4986908;28;20050;-66
2023/06/24 07:59:09;;;;;;;5.50;3.88;;;;;;;27.10;40.45;97510.84;4979668;28;20046;-66
2023/06/24 08:01:34;;;;;;;5.63;3.35;;;;;;;24.77;43.40;97518.97;4981608;28;20519;-66
2023/06/24 08:03:59;;;;;;;5.88;3.88;;;;;;;24.16;45.97;97506.53;4981603;28;20396;-66
2023/06/24 08:06:25;;;;;;;5.80;3.85;;;;;;;24.20;45.73;97504.41;4977471;28;20096;-68
2023/06/24 08:08:50;;;;;;;7.95;3.45;;;;;;;25.58;44.27;97511.47;4982005;28;20050;-68
2023/06/24 08:11:16;;;;;;;7.03;3.97;;;;;;;24.75;44.42;97511.00;4977536;28;20042;-67
2023/06/24 08:13:41;;;;;;;8.20;4.03;;;;;;;23.51;47.72;97501.66;4982395;28;20137;-68
2023/06/24 08:16:07;;;;;;;8.02;5.22;;;;;;;22.76;49.05;97506.75;4977799;28;20598;-68
2023/06/24 08:18:33;;;;;;;5.47;3.83;;;;;;;23.20;49.22;97502.72;4985901;28;20046;-68
2023/06/24 08:20:58;;;;;;;5.93;4.20;;;;;;;22.27;50.13;97485.75;4982138;28;20046;-68
2023/06/24 08:23:23;;;;;;;7.07;4.40;;;;;;;22.82;51.02;97491.88;4959863;28;20506;-69
2023/06/24 08:25:49;;;;;;;10.00;4.53;;;;;;;23.90;48.39;97502.78;4981669;28;20531;-67
2023/06/24 08:28:14;;;;;;;6.72;4.32;;;;;;;23.50;48.13;97492.50;4977611;28;20046;-68
2023/06/24 08:30:39;;;;;;;6.85;4.55;;;;;;;23.80;46.43;97490.63;4971479;28;20045;-68
2023/06/24 08:33:05;;;;;;;6.00;4.22;;;;;;;23.41;48.09;97484.69;4957737;28;20688;-68
2023/06/24 08:35:30;;;;;;;7.53;4.47;;;;;;;23.45;47.50;97479.03;4962893;28;20404;-68
2023/06/24 08:37:56;;;;;;;5.13;3.72;;;;;;;22.85;48.44;97482.66;4962234;28;20051;-68
2023/06/24 08:40:21;;;;;;;5.63;4.22;;;;;;;23.08;48.54;97487.41;4957844;28;20248;-68
2023/06/24 08:42:46;;;;;;;7.55;4.82;;;;;;;22.67;48.20;97479.41;4980544;28;20093;-67
2023/06/24 08:45:12;;;;;;;6.75;3.90;;;;;;;24.10;46.49;97478.28;4980215;28;20042;-69
2023/06/24 08:47:39;;;;;;;5.78;3.78;;;;;;;23.14;47.63;97479.28;4982523;28;20042;-67
2023/06/24 08:50:11;;;;;;;5.57;3.85;;;;;;;24.17;44.84;97480.13;4966555;28;20063;-68
2023/06/24 08:52:38;;;;;;;5.75;3.92;;;;;;;23.54;47.55;97479.22;4961657;28;20046;-67
2023/06/24 08:55:06;;;;;;;11.43;4.13;;;;;;;23.63;47.81;97475.81;4958992;28;20043;-71
2023/06/24 08:57:31;;;;;;;5.82;3.92;;;;;;;24.65;46.01;97463.69;4969616;28;20073;-67
2023/06/24 08:59:57;;;;;;;8.63;4.10;;;;;;;24.25;45.75;97467.50;4995824;28;20074;-67
2023/06/24 09:02:22;;;;;;;6.50;3.92;;;;;;;23.90;45.02;97475.59;4960790;28;20084;-67
2023/06/24 09:04:49;;;;;;;5.07;3.67;;;;;;;24.49;45.54;97482.09;4982407;28;20149;-66
2023/06/24 09:07:25;;;;;;;6.88;3.65;;;;;;;24.50;43.68;97478.06;4977738;28;20070;-66
2023/06/24 09:09:50;;;;;;;6.78;3.80;;;;;;;23.21;45.64;97472.75;4982132;28;20078;-66
2023/06/24 09:12:16;;;;;;;6.65;4.65;;;;;;;23.07;46.84;97473.84;4976178;28;20066;-66
2023/06/24 09:14:42;;;;;;;6.82;4.03;;;;;;;24.35;46.56;97468.47;4984826;28;20046;-66
2023/06/24 09:17:09;;;;;;;6.45;3.92;;;;;;;23.61;45.77;97469.88;4981282;28;20042;-66
2023/06/24 09:19:36;;;;;;;5.22;3.83;;;;;;;24.52;46.36;97463.63;4989097;28;20129;-66
2023/06/24 09:22:16;;;;;;;5.15;3.80;;;;;;;25.47;45.00;97461.31;4984792;28;20109;-66
2023/06/24 09:24:41;;;;;;;5.95;4.07;;;;;;;23.89;45.53;97465.63;4969606;28;20047;-68
2023/06/24 09:27:07;;;;;;;4.82;3.88;;;;;;;23.63;44.87;97464.63;4944367;28;20051;-66
2023/06/24 09:29:35;;;;;;;5.97;3.90;;;;;;;23.88;47.16;97452.06;4966280;28;20039;-66
2023/06/24 09:32:04;;;;;;;5.47;4.68;;;;;;;23.74;44.41;97461.56;4950957;28;20047;-68
2023/06/24 09:34:30;;;;;;;5.13;4.20;;;;;;;24.05;45.29;97454.41;4966543;28;20474;-67
2023/06/24 09:36:57;;;;;;;8.02;4.20;;;;;;;24.42;43.32;97445.88;4992420;28;20294;-68
2023/06/24 09:39:30;;;;;;;6.32;4.43;;;;;;;24.54;43.10;97455.59;4980000;28;20055;-68
2023/06/24 09:42:00;;;;;;;5.13;4.03;;;;;;;24.94;43.04;97444.06;4972038;28;20046;-68
2023/06/24 09:44:27;;;;;;;6.85;3.63;;;;;;;25.77;42.87;97439.53;4973473;28;20051;-68
2023/06/24 09:46:53;;;;;;;8.15;3.90;;;;;;;26.65;40.84;97434.16;4966908;28;20049;-67
2023/06/24 09:49:19;;;;;;;6.00;4.13;;;;;;;25.45;41.15;97432.94;4985471;28;20034;-67
2023/06/24 09:51:47;;;;;;;6.03;4.13;;;;;;;24.36;44.44;97431.66;4984763;28;20038;-66
2023/06/24 09:54:14;;;;;;;6.78;4.50;;;;;;;24.00;46.64;97429.78;4979288;28;20073;-68
2023/06/24 09:56:47;;;;;;;6.25;4.03;;;;;;;24.31;44.70;97434.16;4968826;28;20069;-68
2023/06/24 09:59:14;;;;;;;6.72;3.85;;;;;;;24.90;43.04;97420.97;4979843;28;20038;-68
2023/06/24 10:01:43;;;;;;;5.38;3.80;;;;;;;25.94;42.09;97410.13;4984543;28;20049;-69
2023/06/24 10:04:10;;;;;;;4.47;3.55;;;;;;;26.72;39.67;97418.28;4979396;28;20153;-68
2023/06/24 10:06:35;;;;;;;5.25;3.20;;;;;;;25.35;41.40;97420.84;4984107;28;20073;-68
2023/06/24 10:09:02;;;;;;;5.57;3.60;;;;;;;24.59;41.26;97399.03;4985679;28;20046;-67
2023/06/24 10:11:27;;;;;;;4.93;3.65;;;;;;;24.89;42.01;97406.16;4964251;28;20073;-67
2023/06/24 10:13:54;;;;;;;6.70;3.45;;;;;;;26.23;39.34;97405.53;4984503;28;20074;-68
2023/06/24 10:16:20;;;;;;;6.47;3.42;;;;;;;25.50;41.07;97407.13;4981129;28;20034;-68
2023/06/24 10:18:46;;;;;;;4.30;3.40;;;;;;;25.90;38.81;97403.81;4984454;28;20391;-68
2023/06/24 10:21:12;;;;;;;7.30;3.85;;;;;;;24.60;40.48;97395.81;4962457;28;20077;-68
2023/06/24 10:23:42;;;;;;;5.78;2.92;;;;;;;24.98;40.51;97397.88;4982397;28;20212;-68
2023/06/24 10:26:23;;;;;;;7.35;3.45;;;;;;;24.69;40.38;97409.16;4979920;28;20054;-68
2023/06/24 10:29:07;;;;;;;4.78;3.40;;;;;;;24.61;39.97;97391.78;4984841;28;20038;-67
2023/06/24 10:31:44;;;;;;;5.53;3.95;;;;;;;24.89;40.91;97405.41;4985318;28;20087;-66
2023/06/24 10:34:31;;;;;;;5.40;3.17;;;;;;;24.41;38.65;97399.50;4979783;28;20070;-67
2023/06/24 10:37:07;;;;;;;4.05;3.15;;;;;;;24.79;38.52;97399.66;4974516;28;20085;-67
2023/06/24 10:39:56;;;;;;;5.30;3.20;;;;;;;24.33;38.98;97403.75;4983074;28;20038;-66
2023/06/24 10:42:37;;;;;;;4.53;3.22;;;;;;;24.20;38.24;97390.47;4979386;28;20112;-67
2023/06/24 10:45:08;;;;;;;5.55;3.10;;;;;;;24.61;39.11;97383.38;4964611;28;20092;-66
2023/06/24 10:47:34;;;;;;;6.35;3.40;;;;;;;24.97;38.18;97382.31;4984011;28;20051;-67
2023/06/24 10:50:00;;;;;;;4.72;3.20;;;;;;;24.71;38.08;97381.50;4983045;28;20042;-67
2023/06/24 10:52:25;;;;;;;4.85;3.60;;;;;;;24.67;39.86;97372.41;4980439;28;20388;-68
2023/06/24 10:54:52;;;;;;;4.10;3.25;;;;;;;24.18;39.08;97370.56;4989545;28;20136;-68
2023/06/24 10:57:26;;;;;;;5.00;3.45;;;;;;;24.71;39.85;97361.88;4988766;28;20042;-68
2023/06/24 10:59:53;;;;;;;4.20;3.10;;;;;;;25.65;39.08;97364.59;4990424;28;20497;-67
2023/06/24 11:02:24;;;;;;;4.28;2.97;;;;;;;26.18;36.70;97364.00;4979677;28;20141;-67
2023/06/24 11:04:55;;;;;;;6.32;3.40;;;;;;;26.62;37.02;97350.78;4983320;28;20077;-67
2023/06/24 11:07:22;;;;;;;5.50;3.10;;;;;;;26.01;38.86;97344.53;4978735;28;20042;-68
2023/06/24 11:09:53;;;;;;;8.20;3.33;;;;;;;25.38;38.02;97351.84;4982007;28;20388;-67
2023/06/24 11:12:22;;;;;;;4.85;3.40;;;;;;;24.63;38.62;97354.13;4976952;28;20049;-67
2023/06/24 11:14:48;;;;;;;4.32;3.28;;;;;;;25.16;39.70;97346.91;4981076;28;20061;-68
2023/06/24 11:17:13;;;;;;;4.93;3.42;;;;;;;25.15;38.35;97345.31;4977992;28;20484;-67
2023/06/24 11:19:39;;;;;;;5.45;3.50;;;;;;;26.27;37.69;97339.63;4983263;28;20097;-67
2023/06/24 11:22:06;;;;;;;4.97;3.20;;;;;;;26.46;36.68;97340.50;4978765;28;20399;-66
2023/06/24 11:24:32;;;;;;;4.93;3.40;;;;;;;26.14;36.59;97330.44;4983105;28;20042;-66
2023/06/24 11:26:58;;;;;;;4.45;3.42;;;;;;;24.68;38.86;97337.56;4984356;28;20100;-67
2023/06/24 11:29:24;;;;;;;6.95;3.40;;;;;;;24.86;38.70;97327.84;4976651;28;20629;-68
2023/06/24 11:31:50;;;;;;;4.85;3.45;;;;;;;23.98;40.15;97323.09;4983147;28;20045;-68